sensor_id;sensor_type;location;lat;lon;timestamp;P1;durP1;ratioP1;P2;durP2;ratioP2
20725;SDS011;10524;48.132;8.518;2022-07-23T00:00:13;22.27;;;20.00;;
20725;SDS011;10524;48.132;8.518;2022-07-23T00:02:39;22.50;;;20.10;;
20725;SDS011;10524;48.132;8.518;2022-07-23T00:05:05;23.85;;;19.85;;
20725;SDS011;10524;48.132;8.518;2022-07-23T00:07:31;22.85;;;20.63;;
20725;SDS011;10524;48.132;8.518;2022-07-23T00:09:56;22.75;;;20.38;;
20725;SDS011;10524;48.132;8.518;2022-07-23T00:12:22;23.92;;;20.65;;
20725;SDS011;10524;48.132;8.518;2022-07-23T00:14:48;23.27;;;20.98;;
20725;SDS011;10524;48.132;8.518;2022-07-23T00:17:13;22.85;;;20.48;;
20725;SDS011;10524;48.132;8.518;2022-07-23T00:19:39;21.77;;;19.45;;
20725;SDS011;10524;48.132;8.518;2022-07-23T00:22:04;21.77;;;19.65;;
20725;SDS011;10524;48.132;8.518;2022-07-23T00:24:30;19.65;;;17.63;;
20725;SDS011;10524;48.132;8.518;2022-07-23T00:26:56;19.98;;;17.92;;
20725;SDS011;10524;48.132;8.518;2022-07-23T00:29:22;18.98;;;17.17;;
20725;SDS011;10524;48.132;8.518;2022-07-23T00:31:47;16.13;;;14.52;;
20725;SDS011;10524;48.132;8.518;2022-07-23T00:34:13;16.27;;;14.48;;
20725;SDS011;10524;48.132;8.518;2022-07-23T00:36:39;16.25;;;14.65;;
20725;SDS011;10524;48.132;8.518;2022-07-23T00:39:04;16.77;;;15.07;;
20725;SDS011;10524;48.132;8.518;2022-07-23T00:41:30;15.85;;;14.25;;
20725;SDS011;10524;48.132;8.518;2022-07-23T00:43:56;15.48;;;13.98;;
20725;SDS011;10524;48.132;8.518;2022-07-23T00:46:44;15.55;;;14.05;;
20725;SDS011;10524;48.132;8.518;2022-07-23T00:51:36;14.93;;;13.43;;
20725;SDS011;10524;48.132;8.518;2022-07-23T00:54:02;16.10;;;14.50;;
20725;SDS011;10524;48.132;8.518;2022-07-23T00:56:28;20.77;;;18.35;;
20725;SDS011;10524;48.132;8.518;2022-07-23T00:58:55;19.95;;;17.95;;
20725;SDS011;10524;48.132;8.518;2022-07-23T01:01:21;19.42;;;17.42;;
20725;SDS011;10524;48.132;8.518;2022-07-23T01:03:47;19.45;;;17.52;;
20725;SDS011;10524;48.132;8.518;2022-07-23T01:06:13;16.88;;;15.15;;
20725;SDS011;10524;48.132;8.518;2022-07-23T01:08:39;16.33;;;14.52;;
20725;SDS011;10524;48.132;8.518;2022-07-23T01:11:06;17.10;;;15.43;;
20725;SDS011;10524;48.132;8.518;2022-07-23T01:13:32;18.60;;;16.80;;
20725;SDS011;10524;48.132;8.518;2022-07-23T01:15:57;17.55;;;15.88;;
20725;SDS011;10524;48.132;8.518;2022-07-23T01:18:23;18.00;;;16.15;;
20725;SDS011;10524;48.132;8.518;2022-07-23T01:20:49;17.80;;;15.88;;
20725;SDS011;10524;48.132;8.518;2022-07-23T01:23:14;16.63;;;14.93;;
20725;SDS011;10524;48.132;8.518;2022-07-23T01:25:52;16.55;;;14.90;;
20725;SDS011;10524;48.132;8.518;2022-07-23T01:28:19;17.05;;;15.30;;
20725;SDS011;10524;48.132;8.518;2022-07-23T01:30:45;17.52;;;15.73;;
20725;SDS011;10524;48.132;8.518;2022-07-23T01:33:12;17.83;;;15.98;;
20725;SDS011;10524;48.132;8.518;2022-07-23T01:35:38;18.30;;;16.02;;
20725;SDS011;10524;48.132;8.518;2022-07-23T01:38:04;17.05;;;15.40;;
20725;SDS011;10524;48.132;8.518;2022-07-23T01:40:30;20.30;;;15.93;;
20725;SDS011;10524;48.132;8.518;2022-07-23T01:42:56;17.20;;;15.50;;
20725;SDS011;10524;48.132;8.518;2022-07-23T01:45:21;18.45;;;16.35;;
20725;SDS011;10524;48.132;8.518;2022-07-23T01:47:47;16.33;;;14.77;;
20725;SDS011;10524;48.132;8.518;2022-07-23T01:50:13;17.38;;;15.57;;
20725;SDS011;10524;48.132;8.518;2022-07-23T01:52:39;19.88;;;17.98;;
20725;SDS011;10524;48.132;8.518;2022-07-23T01:55:05;20.25;;;18.17;;
20725;SDS011;10524;48.132;8.518;2022-07-23T01:57:31;19.55;;;17.70;;
20725;SDS011;10524;48.132;8.518;2022-07-23T01:59:57;21.75;;;19.33;;
20725;SDS011;10524;48.132;8.518;2022-07-23T02:02:23;20.38;;;18.25;;
20725;SDS011;10524;48.132;8.518;2022-07-23T02:04:49;19.80;;;17.70;;
20725;SDS011;10524;48.132;8.518;2022-07-23T02:07:14;18.63;;;16.73;;
20725;SDS011;10524;48.132;8.518;2022-07-23T02:09:40;19.80;;;16.90;;
20725;SDS011;10524;48.132;8.518;2022-07-23T02:12:06;20.08;;;18.05;;
20725;SDS011;10524;48.132;8.518;2022-07-23T02:14:32;19.52;;;16.52;;
20725;SDS011;10524;48.132;8.518;2022-07-23T02:16:57;17.60;;;15.10;;
20725;SDS011;10524;48.132;8.518;2022-07-23T02:19:23;16.85;;;15.15;;
20725;SDS011;10524;48.132;8.518;2022-07-23T02:21:49;15.73;;;13.95;;
20725;SDS011;10524;48.132;8.518;2022-07-23T02:24:14;14.50;;;13.02;;
20725;SDS011;10524;48.132;8.518;2022-07-23T02:26:40;15.00;;;13.50;;
20725;SDS011;10524;48.132;8.518;2022-07-23T02:29:06;14.57;;;13.18;;
20725;SDS011;10524;48.132;8.518;2022-07-23T02:31:32;15.13;;;13.63;;
20725;SDS011;10524;48.132;8.518;2022-07-23T02:33:58;15.23;;;13.82;;
20725;SDS011;10524;48.132;8.518;2022-07-23T02:36:24;15.30;;;13.80;;
20725;SDS011;10524;48.132;8.518;2022-07-23T02:38:50;15.70;;;14.02;;
20725;SDS011;10524;48.132;8.518;2022-07-23T02:41:15;14.98;;;13.48;;
20725;SDS011;10524;48.132;8.518;2022-07-23T02:43:41;14.88;;;13.13;;
20725;SDS011;10524;48.132;8.518;2022-07-23T02:46:07;14.60;;;13.18;;
20725;SDS011;10524;48.132;8.518;2022-07-23T02:48:32;16.98;;;14.18;;
20725;SDS011;10524;48.132;8.518;2022-07-23T02:50:58;15.27;;;13.75;;
20725;SDS011;10524;48.132;8.518;2022-07-23T02:53:25;14.98;;;13.57;;
20725;SDS011;10524;48.132;8.518;2022-07-23T02:55:51;15.93;;;14.32;;
20725;SDS011;10524;48.132;8.518;2022-07-23T02:58:16;13.88;;;12.48;;
20725;SDS011;10524;48.132;8.518;2022-07-23T03:00:42;14.10;;;12.63;;
20725;SDS011;10524;48.132;8.518;2022-07-23T03:03:08;14.48;;;13.07;;
20725;SDS011;10524;48.132;8.518;2022-07-23T03:05:34;14.82;;;13.32;;
20725;SDS011;10524;48.132;8.518;2022-07-23T03:08:00;15.85;;;14.15;;
20725;SDS011;10524;48.132;8.518;2022-07-23T03:10:25;15.10;;;13.50;;
20725;SDS011;10524;48.132;8.518;2022-07-23T03:12:51;16.90;;;15.10;;
20725;SDS011;10524;48.132;8.518;2022-07-23T03:15:17;16.80;;;15.18;;
20725;SDS011;10524;48.132;8.518;2022-07-23T03:17:42;16.77;;;15.18;;
20725;SDS011;10524;48.132;8.518;2022-07-23T03:20:08;16.17;;;14.32;;
20725;SDS011;10524;48.132;8.518;2022-07-23T03:22:34;16.30;;;14.80;;
20725;SDS011;10524;48.132;8.518;2022-07-23T03:25:00;16.65;;;14.95;;
20725;SDS011;10524;48.132;8.518;2022-07-23T03:27:27;16.48;;;14.77;;
20725;SDS011;10524;48.132;8.518;2022-07-23T03:29:54;16.42;;;14.73;;
20725;SDS011;10524;48.132;8.518;2022-07-23T03:32:21;17.33;;;15.45;;
20725;SDS011;10524;48.132;8.518;2022-07-23T03:34:48;16.85;;;15.18;;
20725;SDS011;10524;48.132;8.518;2022-07-23T03:37:14;17.00;;;15.25;;
20725;SDS011;10524;48.132;8.518;2022-07-23T03:39:39;19.05;;;16.05;;
20725;SDS011;10524;48.132;8.518;2022-07-23T03:42:05;16.48;;;14.88;;
20725;SDS011;10524;48.132;8.518;2022-07-23T03:44:31;18.75;;;16.30;;
20725;SDS011;10524;48.132;8.518;2022-07-23T03:46:57;17.98;;;16.13;;
20725;SDS011;10524;48.132;8.518;2022-07-23T03:49:23;18.85;;;16.08;;
20725;SDS011;10524;48.132;8.518;2022-07-23T03:51:49;17.50;;;15.82;;
20725;SDS011;10524;48.132;8.518;2022-07-23T03:54:15;19.55;;;17.55;;
20725;SDS011;10524;48.132;8.518;2022-07-23T03:56:40;18.42;;;16.63;;
20725;SDS011;10524;48.132;8.518;2022-07-23T03:59:07;18.20;;;16.30;;
20725;SDS011;10524;48.132;8.518;2022-07-23T04:01:33;17.67;;;15.85;;
20725;SDS011;10524;48.132;8.518;2022-07-23T04:03:59;18.23;;;16.35;;
20725;SDS011;10524;48.132;8.518;2022-07-23T04:06:25;17.10;;;15.35;;
20725;SDS011;10524;48.132;8.518;2022-07-23T04:08:50;18.33;;;16.30;;
20725;SDS011;10524;48.132;8.518;2022-07-23T04:11:16;18.75;;;16.70;;
20725;SDS011;10524;48.132;8.518;2022-07-23T04:13:42;18.90;;;16.88;;
20725;SDS011;10524;48.132;8.518;2022-07-23T04:16:07;17.17;;;15.38;;
20725;SDS011;10524;48.132;8.518;2022-07-23T04:18:33;17.13;;;15.15;;
20725;SDS011;10524;48.132;8.518;2022-07-23T04:20:59;19.45;;;15.23;;
20725;SDS011;10524;48.132;8.518;2022-07-23T04:23:24;17.55;;;14.90;;
20725;SDS011;10524;48.132;8.518;2022-07-23T04:25:50;15.50;;;13.20;;
20725;SDS011;10524;48.132;8.518;2022-07-23T04:28:15;14.23;;;12.82;;
20725;SDS011;10524;48.132;8.518;2022-07-23T04:30:41;13.95;;;12.65;;
20725;SDS011;10524;48.132;8.518;2022-07-23T04:33:07;13.90;;;12.40;;
20725;SDS011;10524;48.132;8.518;2022-07-23T04:35:33;15.23;;;13.07;;
20725;SDS011;10524;48.132;8.518;2022-07-23T04:37:59;13.98;;;12.57;;
20725;SDS011;10524;48.132;8.518;2022-07-23T04:40:25;14.90;;;13.32;;
20725;SDS011;10524;48.132;8.518;2022-07-23T04:42:51;14.10;;;12.55;;
20725;SDS011;10524;48.132;8.518;2022-07-23T04:45:17;14.60;;;11.55;;
20725;SDS011;10524;48.132;8.518;2022-07-23T04:47:43;15.88;;;12.50;;
20725;SDS011;10524;48.132;8.518;2022-07-23T04:50:08;15.48;;;11.55;;
20725;SDS011;10524;48.132;8.518;2022-07-23T04:52:34;11.80;;;10.57;;
20725;SDS011;10524;48.132;8.518;2022-07-23T04:55:00;11.95;;;10.20;;
20725;SDS011;10524;48.132;8.518;2022-07-23T04:57:25;11.93;;;9.57;;
20725;SDS011;10524;48.132;8.518;2022-07-23T04:59:51;11.35;;;10.02;;
20725;SDS011;10524;48.132;8.518;2022-07-23T05:02:17;10.65;;;9.57;;
20725;SDS011;10524;48.132;8.518;2022-07-23T05:04:42;10.30;;;9.30;;
20725;SDS011;10524;48.132;8.518;2022-07-23T05:07:08;9.68;;;8.77;;
20725;SDS011;10524;48.132;8.518;2022-07-23T05:09:34;9.32;;;8.43;;
20725;SDS011;10524;48.132;8.518;2022-07-23T05:12:00;9.15;;;8.30;;
20725;SDS011;10524;48.132;8.518;2022-07-23T05:14:25;9.27;;;8.30;;
20725;SDS011;10524;48.132;8.518;2022-07-23T05:16:51;9.40;;;8.38;;
20725;SDS011;10524;48.132;8.518;2022-07-23T05:19:17;9.48;;;7.93;;
20725;SDS011;10524;48.132;8.518;2022-07-23T05:21:43;8.45;;;7.47;;
20725;SDS011;10524;48.132;8.518;2022-07-23T05:24:08;11.07;;;8.43;;
20725;SDS011;10524;48.132;8.518;2022-07-23T05:26:34;9.32;;;7.97;;
20725;SDS011;10524;48.132;8.518;2022-07-23T05:29:00;9.27;;;7.45;;
20725;SDS011;10524;48.132;8.518;2022-07-23T05:31:25;8.18;;;7.38;;
20725;SDS011;10524;48.132;8.518;2022-07-23T05:33:51;7.95;;;7.15;;
20725;SDS011;10524;48.132;8.518;2022-07-23T05:36:16;8.02;;;6.97;;
20725;SDS011;10524;48.132;8.518;2022-07-23T05:38:42;8.00;;;7.20;;
20725;SDS011;10524;48.132;8.518;2022-07-23T05:41:08;10.25;;;7.70;;
20725;SDS011;10524;48.132;8.518;2022-07-23T05:43:33;8.70;;;7.07;;
20725;SDS011;10524;48.132;8.518;2022-07-23T05:45:59;7.50;;;6.85;;
20725;SDS011;10524;48.132;8.518;2022-07-23T05:48:25;8.15;;;7.03;;
20725;SDS011;10524;48.132;8.518;2022-07-23T05:50:50;6.40;;;5.80;;
20725;SDS011;10524;48.132;8.518;2022-07-23T05:53:16;6.95;;;6.18;;
20725;SDS011;10524;48.132;8.518;2022-07-23T05:55:42;7.45;;;6.22;;
20725;SDS011;10524;48.132;8.518;2022-07-23T05:58:07;7.47;;;6.28;;
20725;SDS011;10524;48.132;8.518;2022-07-23T06:00:34;6.70;;;6.03;;
20725;SDS011;10524;48.132;8.518;2022-07-23T06:02:59;7.03;;;5.32;;
20725;SDS011;10524;48.132;8.518;2022-07-23T06:05:25;6.32;;;5.72;;
20725;SDS011;10524;48.132;8.518;2022-07-23T06:07:51;7.43;;;5.30;;
20725;SDS011;10524;48.132;8.518;2022-07-23T06:10:18;7.07;;;6.47;;
20725;SDS011;10524;48.132;8.518;2022-07-23T06:12:44;7.55;;;6.25;;
20725;SDS011;10524;48.132;8.518;2022-07-23T06:15:10;6.00;;;5.50;;
20725;SDS011;10524;48.132;8.518;2022-07-23T06:17:36;6.63;;;5.93;;
20725;SDS011;10524;48.132;8.518;2022-07-23T06:20:04;6.60;;;5.82;;
20725;SDS011;10524;48.132;8.518;2022-07-23T06:22:34;6.10;;;5.50;;
20725;SDS011;10524;48.132;8.518;2022-07-23T06:25:00;7.10;;;5.63;;
20725;SDS011;10524;48.132;8.518;2022-07-23T06:27:26;6.30;;;5.70;;
20725;SDS011;10524;48.132;8.518;2022-07-23T06:29:52;6.18;;;5.57;;
20725;SDS011;10524;48.132;8.518;2022-07-23T06:32:18;6.10;;;5.60;;
20725;SDS011;10524;48.132;8.518;2022-07-23T06:34:44;6.70;;;5.70;;
20725;SDS011;10524;48.132;8.518;2022-07-23T06:37:09;7.05;;;5.50;;
20725;SDS011;10524;48.132;8.518;2022-07-23T06:39:35;8.07;;;5.93;;
20725;SDS011;10524;48.132;8.518;2022-07-23T06:42:00;6.35;;;5.75;;
20725;SDS011;10524;48.132;8.518;2022-07-23T06:44:26;7.50;;;6.43;;
20725;SDS011;10524;48.132;8.518;2022-07-23T06:46:52;5.95;;;5.35;;
20725;SDS011;10524;48.132;8.518;2022-07-23T06:49:17;6.60;;;5.90;;
20725;SDS011;10524;48.132;8.518;2022-07-23T06:51:43;6.38;;;5.72;;
20725;SDS011;10524;48.132;8.518;2022-07-23T06:54:09;6.13;;;5.63;;
20725;SDS011;10524;48.132;8.518;2022-07-23T06:56:34;7.18;;;6.10;;
20725;SDS011;10524;48.132;8.518;2022-07-23T06:59:00;7.05;;;6.20;;
20725;SDS011;10524;48.132;8.518;2022-07-23T07:01:26;7.57;;;6.43;;
20725;SDS011;10524;48.132;8.518;2022-07-23T07:03:51;6.35;;;5.65;;
20725;SDS011;10524;48.132;8.518;2022-07-23T07:06:17;7.70;;;6.13;;
20725;SDS011;10524;48.132;8.518;2022-07-23T07:08:43;6.68;;;5.97;;
20725;SDS011;10524;48.132;8.518;2022-07-23T07:11:09;9.40;;;6.20;;
20725;SDS011;10524;48.132;8.518;2022-07-23T07:13:35;6.38;;;5.88;;
20725;SDS011;10524;48.132;8.518;2022-07-23T07:16:01;6.40;;;5.90;;
20725;SDS011;10524;48.132;8.518;2022-07-23T07:18:27;6.93;;;6.30;;
20725;SDS011;10524;48.132;8.518;2022-07-23T07:20:53;7.43;;;6.22;;
20725;SDS011;10524;48.132;8.518;2022-07-23T07:23:18;7.68;;;6.70;;
20725;SDS011;10524;48.132;8.518;2022-07-23T07:25:45;6.68;;;6.07;;
20725;SDS011;10524;48.132;8.518;2022-07-23T07:28:12;6.65;;;6.05;;
20725;SDS011;10524;48.132;8.518;2022-07-23T07:30:38;7.03;;;6.43;;
20725;SDS011;10524;48.132;8.518;2022-07-23T07:33:03;7.97;;;6.90;;
20725;SDS011;10524;48.132;8.518;2022-07-23T07:35:29;7.80;;;7.10;;
20725;SDS011;10524;48.132;8.518;2022-07-23T07:37:57;7.68;;;6.95;;
20725;SDS011;10524;48.132;8.518;2022-07-23T07:40:23;7.57;;;6.88;;
20725;SDS011;10524;48.132;8.518;2022-07-23T07:42:52;7.70;;;6.80;;
20725;SDS011;10524;48.132;8.518;2022-07-23T07:45:22;7.10;;;6.40;;
20725;SDS011;10524;48.132;8.518;2022-07-23T07:47:49;7.63;;;6.90;;
20725;SDS011;10524;48.132;8.518;2022-07-23T07:50:15;7.15;;;6.55;;
20725;SDS011;10524;48.132;8.518;2022-07-23T07:52:41;7.78;;;6.90;;
20725;SDS011;10524;48.132;8.518;2022-07-23T07:55:08;7.57;;;6.80;;
20725;SDS011;10524;48.132;8.518;2022-07-23T07:57:35;7.43;;;6.80;;
20725;SDS011;10524;48.132;8.518;2022-07-23T08:00:01;8.00;;;7.25;;
20725;SDS011;10524;48.132;8.518;2022-07-23T08:02:28;9.90;;;7.95;;
20725;SDS011;10524;48.132;8.518;2022-07-23T08:04:54;7.85;;;7.15;;
20725;SDS011;10524;48.132;8.518;2022-07-23T08:07:22;8.13;;;7.43;;
20725;SDS011;10524;48.132;8.518;2022-07-23T08:09:47;8.30;;;7.50;;
20725;SDS011;10524;48.132;8.518;2022-07-23T08:12:13;8.98;;;8.07;;
20725;SDS011;10524;48.132;8.518;2022-07-23T08:14:39;8.57;;;7.70;;
20725;SDS011;10524;48.132;8.518;2022-07-23T08:17:04;8.90;;;7.97;;
20725;SDS011;10524;48.132;8.518;2022-07-23T08:19:30;8.43;;;7.63;;
20725;SDS011;10524;48.132;8.518;2022-07-23T08:21:55;8.30;;;7.50;;
20725;SDS011;10524;48.132;8.518;2022-07-23T08:24:21;8.07;;;7.28;;
20725;SDS011;10524;48.132;8.518;2022-07-23T08:26:47;7.70;;;6.90;;
20725;SDS011;10524;48.132;8.518;2022-07-23T08:29:12;8.00;;;7.20;;
20725;SDS011;10524;48.132;8.518;2022-07-23T08:31:38;7.72;;;6.70;;
20725;SDS011;10524;48.132;8.518;2022-07-23T08:34:05;7.70;;;7.00;;
20725;SDS011;10524;48.132;8.518;2022-07-23T08:36:30;9.25;;;7.88;;
20725;SDS011;10524;48.132;8.518;2022-07-23T08:38:57;7.80;;;7.03;;
20725;SDS011;10524;48.132;8.518;2022-07-23T08:41:24;8.07;;;7.30;;
20725;SDS011;10524;48.132;8.518;2022-07-23T08:43:50;8.48;;;7.63;;
20725;SDS011;10524;48.132;8.518;2022-07-23T08:46:17;9.85;;;7.88;;
20725;SDS011;10524;48.132;8.518;2022-07-23T08:48:44;10.15;;;7.65;;
20725;SDS011;10524;48.132;8.518;2022-07-23T08:51:13;7.93;;;7.13;;
20725;SDS011;10524;48.132;8.518;2022-07-23T08:53:40;7.50;;;6.80;;
20725;SDS011;10524;48.132;8.518;2022-07-23T08:56:07;7.55;;;6.88;;
20725;SDS011;10524;48.132;8.518;2022-07-23T08:58:33;8.00;;;7.20;;
20725;SDS011;10524;48.132;8.518;2022-07-23T09:00:59;8.57;;;7.78;;
20725;SDS011;10524;48.132;8.518;2022-07-23T09:03:26;8.63;;;7.50;;
20725;SDS011;10524;48.132;8.518;2022-07-23T09:06:04;9.23;;;7.43;;
20725;SDS011;10524;48.132;8.518;2022-07-23T09:11:06;9.00;;;7.90;;
20725;SDS011;10524;48.132;8.518;2022-07-23T09:21:14;10.15;;;7.65;;
20725;SDS011;10524;48.132;8.518;2022-07-23T09:26:17;9.50;;;7.30;;
20725;SDS011;10524;48.132;8.518;2022-07-23T09:28:49;8.97;;;8.07;;
20725;SDS011;10524;48.132;8.518;2022-07-23T09:31:19;8.55;;;7.50;;
20725;SDS011;10524;48.132;8.518;2022-07-23T09:33:45;7.95;;;7.20;;
20725;SDS011;10524;48.132;8.518;2022-07-23T09:36:11;7.97;;;7.15;;
20725;SDS011;10524;48.132;8.518;2022-07-23T09:38:47;8.75;;;7.15;;
20725;SDS011;10524;48.132;8.518;2022-07-23T09:41:14;7.40;;;6.70;;
20725;SDS011;10524;48.132;8.518;2022-07-23T09:43:40;7.28;;;6.60;;
20725;SDS011;10524;48.132;8.518;2022-07-23T09:48:44;7.20;;;6.60;;
20725;SDS011;10524;48.132;8.518;2022-07-23T09:51:11;7.72;;;6.80;;
20725;SDS011;10524;48.132;8.518;2022-07-23T09:53:37;6.88;;;6.28;;
20725;SDS011;10524;48.132;8.518;2022-07-23T09:56:03;7.13;;;6.53;;
20725;SDS011;10524;48.132;8.518;2022-07-23T09:58:29;8.38;;;6.40;;
20725;SDS011;10524;48.132;8.518;2022-07-23T10:00:55;7.03;;;6.22;;
20725;SDS011;10524;48.132;8.518;2022-07-23T10:03:23;6.82;;;6.22;;
20725;SDS011;10524;48.132;8.518;2022-07-23T10:05:49;6.95;;;6.35;;
20725;SDS011;10524;48.132;8.518;2022-07-23T10:08:17;6.80;;;6.03;;
20725;SDS011;10524;48.132;8.518;2022-07-23T10:10:45;6.75;;;6.05;;
20725;SDS011;10524;48.132;8.518;2022-07-23T10:13:12;6.78;;;6.15;;
20725;SDS011;10524;48.132;8.518;2022-07-23T10:15:51;6.70;;;5.55;;
20725;SDS011;10524;48.132;8.518;2022-07-23T10:18:17;7.15;;;6.45;;
20725;SDS011;10524;48.132;8.518;2022-07-23T10:20:43;6.60;;;6.00;;
20725;SDS011;10524;48.132;8.518;2022-07-23T10:23:28;7.32;;;6.63;;
20725;SDS011;10524;48.132;8.518;2022-07-23T10:26:14;7.22;;;6.15;;
20725;SDS011;10524;48.132;8.518;2022-07-23T10:39:31;5.45;;;4.95;;
20725;SDS011;10524;48.132;8.518;2022-07-23T10:42:11;6.03;;;5.43;;
20725;SDS011;10524;48.132;8.518;2022-07-23T10:44:39;5.30;;;4.85;;
20725;SDS011;10524;48.132;8.518;2022-07-23T10:47:08;5.90;;;5.30;;
20725;SDS011;10524;48.132;8.518;2022-07-23T10:49:40;6.03;;;5.43;;
20725;SDS011;10524;48.132;8.518;2022-07-23T10:54:41;6.53;;;5.15;;
20725;SDS011;10524;48.132;8.518;2022-07-23T10:57:08;5.15;;;4.65;;
20725;SDS011;10524;48.132;8.518;2022-07-23T11:02:26;5.63;;;5.13;;
20725;SDS011;10524;48.132;8.518;2022-07-23T11:04:54;5.70;;;4.80;;
20725;SDS011;10524;48.132;8.518;2022-07-23T11:07:24;5.25;;;4.85;;
20725;SDS011;10524;48.132;8.518;2022-07-23T11:09:50;5.13;;;4.65;;
20725;SDS011;10524;48.132;8.518;2022-07-23T11:25:10;5.22;;;4.72;;
20725;SDS011;10524;48.132;8.518;2022-07-23T11:27:40;7.03;;;4.72;;
20725;SDS011;10524;48.132;8.518;2022-07-23T11:30:08;5.28;;;4.78;;
20725;SDS011;10524;48.132;8.518;2022-07-23T11:32:36;5.25;;;4.75;;
20725;SDS011;10524;48.132;8.518;2022-07-23T11:35:20;5.50;;;5.00;;
20725;SDS011;10524;48.132;8.518;2022-07-23T11:37:47;5.60;;;5.05;;
20725;SDS011;10524;48.132;8.518;2022-07-23T11:40:14;5.45;;;4.97;;
20725;SDS011;10524;48.132;8.518;2022-07-23T11:42:56;6.63;;;5.25;;
20725;SDS011;10524;48.132;8.518;2022-07-23T11:45:30;5.43;;;4.93;;
20725;SDS011;10524;48.132;8.518;2022-07-23T11:48:01;6.22;;;4.80;;
20725;SDS011;10524;48.132;8.518;2022-07-23T11:50:28;5.55;;;5.05;;
20725;SDS011;10524;48.132;8.518;2022-07-23T11:52:54;5.53;;;5.07;;
20725;SDS011;10524;48.132;8.518;2022-07-23T11:55:20;6.95;;;5.18;;
20725;SDS011;10524;48.132;8.518;2022-07-23T11:57:46;5.47;;;4.97;;
20725;SDS011;10524;48.132;8.518;2022-07-23T12:00:17;6.50;;;5.20;;
20725;SDS011;10524;48.132;8.518;2022-07-23T12:02:48;6.28;;;5.50;;
20725;SDS011;10524;48.132;8.518;2022-07-23T12:05:17;6.15;;;5.00;;
20725;SDS011;10524;48.132;8.518;2022-07-23T12:07:45;5.57;;;5.07;;
20725;SDS011;10524;48.132;8.518;2022-07-23T12:10:21;6.97;;;5.28;;
20725;SDS011;10524;48.132;8.518;2022-07-23T12:12:48;6.30;;;5.65;;
20725;SDS011;10524;48.132;8.518;2022-07-23T12:15:25;9.02;;;5.10;;
20725;SDS011;10524;48.132;8.518;2022-07-23T12:18:00;5.75;;;5.25;;
20725;SDS011;10524;48.132;8.518;2022-07-23T12:20:27;5.60;;;5.10;;
20725;SDS011;10524;48.132;8.518;2022-07-23T12:22:56;5.00;;;4.60;;
20725;SDS011;10524;48.132;8.518;2022-07-23T12:25:26;5.55;;;4.75;;
20725;SDS011;10524;48.132;8.518;2022-07-23T12:28:07;5.53;;;5.03;;
20725;SDS011;10524;48.132;8.518;2022-07-23T12:36:05;5.32;;;4.82;;
20725;SDS011;10524;48.132;8.518;2022-07-23T12:38:36;5.00;;;4.50;;
20725;SDS011;10524;48.132;8.518;2022-07-23T12:41:07;5.97;;;4.82;;
20725;SDS011;10524;48.132;8.518;2022-07-23T12:43:35;5.53;;;5.03;;
20725;SDS011;10524;48.132;8.518;2022-07-23T12:46:13;5.25;;;4.75;;
20725;SDS011;10524;48.132;8.518;2022-07-23T12:51:15;5.22;;;4.72;;
20725;SDS011;10524;48.132;8.518;2022-07-23T12:53:49;7.80;;;5.10;;
20725;SDS011;10524;48.132;8.518;2022-07-23T12:56:26;6.13;;;5.10;;
20725;SDS011;10524;48.132;8.518;2022-07-23T12:59:04;7.20;;;5.05;;
20725;SDS011;10524;48.132;8.518;2022-07-23T13:01:38;6.00;;;5.40;;
20725;SDS011;10524;48.132;8.518;2022-07-23T13:06:45;5.25;;;4.75;;
20725;SDS011;10524;48.132;8.518;2022-07-23T13:09:12;5.00;;;4.60;;
20725;SDS011;10524;48.132;8.518;2022-07-23T13:11:43;5.35;;;4.55;;
20725;SDS011;10524;48.132;8.518;2022-07-23T13:14:10;6.68;;;4.90;;
20725;SDS011;10524;48.132;8.518;2022-07-23T13:16:37;5.90;;;5.30;;
20725;SDS011;10524;48.132;8.518;2022-07-23T13:19:04;6.30;;;5.20;;
20725;SDS011;10524;48.132;8.518;2022-07-23T13:21:31;5.95;;;5.32;;
20725;SDS011;10524;48.132;8.518;2022-07-23T13:23:57;6.20;;;5.60;;
20725;SDS011;10524;48.132;8.518;2022-07-23T13:26:23;5.75;;;5.22;;
20725;SDS011;10524;48.132;8.518;2022-07-23T13:28:49;5.68;;;5.10;;
20725;SDS011;10524;48.132;8.518;2022-07-23T13:31:16;5.85;;;5.35;;
20725;SDS011;10524;48.132;8.518;2022-07-23T13:33:41;6.10;;;5.45;;
20725;SDS011;10524;48.132;8.518;2022-07-23T13:36:07;6.57;;;5.15;;
20725;SDS011;10524;48.132;8.518;2022-07-23T13:38:33;5.97;;;5.32;;
20725;SDS011;10524;48.132;8.518;2022-07-23T13:40:59;6.30;;;5.57;;
20725;SDS011;10524;48.132;8.518;2022-07-23T13:43:28;6.00;;;5.40;;
20725;SDS011;10524;48.132;8.518;2022-07-23T13:45:54;6.47;;;5.28;;
20725;SDS011;10524;48.132;8.518;2022-07-23T13:48:20;6.00;;;5.32;;
20725;SDS011;10524;48.132;8.518;2022-07-23T13:50:47;6.20;;;5.60;;
20725;SDS011;10524;48.132;8.518;2022-07-23T13:53:15;6.10;;;5.25;;
20725;SDS011;10524;48.132;8.518;2022-07-23T13:58:12;6.85;;;5.13;;
20725;SDS011;10524;48.132;8.518;2022-07-23T14:00:39;5.22;;;4.80;;
20725;SDS011;10524;48.132;8.518;2022-07-23T14:03:07;5.43;;;4.93;;
20725;SDS011;10524;48.132;8.518;2022-07-23T14:05:33;7.70;;;5.32;;
20725;SDS011;10524;48.132;8.518;2022-07-23T14:07:59;5.50;;;5.00;;
20725;SDS011;10524;48.132;8.518;2022-07-23T14:10:25;5.78;;;5.10;;
20725;SDS011;10524;48.132;8.518;2022-07-23T14:12:51;5.57;;;5.00;;
20725;SDS011;10524;48.132;8.518;2022-07-23T14:15:24;6.10;;;4.97;;
20725;SDS011;10524;48.132;8.518;2022-07-23T14:17:52;5.45;;;4.95;;
20725;SDS011;10524;48.132;8.518;2022-07-23T14:20:19;8.05;;;5.28;;
20725;SDS011;10524;48.132;8.518;2022-07-23T14:22:45;6.68;;;5.18;;
20725;SDS011;10524;48.132;8.518;2022-07-23T14:25:12;6.43;;;5.80;;
20725;SDS011;10524;48.132;8.518;2022-07-23T14:27:38;6.97;;;6.07;;
20725;SDS011;10524;48.132;8.518;2022-07-23T14:30:05;9.25;;;5.82;;
20725;SDS011;10524;48.132;8.518;2022-07-23T14:32:31;6.40;;;5.63;;
20725;SDS011;10524;48.132;8.518;2022-07-23T14:34:57;8.40;;;6.15;;
20725;SDS011;10524;48.132;8.518;2022-07-23T14:37:23;6.07;;;5.40;;
20725;SDS011;10524;48.132;8.518;2022-07-23T14:39:50;5.88;;;5.28;;
20725;SDS011;10524;48.132;8.518;2022-07-23T14:42:16;7.75;;;5.05;;
20725;SDS011;10524;48.132;8.518;2022-07-23T14:44:42;5.40;;;4.90;;
20725;SDS011;10524;48.132;8.518;2022-07-23T14:47:07;5.88;;;5.15;;
20725;SDS011;10524;48.132;8.518;2022-07-23T14:49:33;5.50;;;5.00;;
20725;SDS011;10524;48.132;8.518;2022-07-23T14:52:00;5.47;;;4.97;;
20725;SDS011;10524;48.132;8.518;2022-07-23T14:54:27;6.90;;;5.00;;
20725;SDS011;10524;48.132;8.518;2022-07-23T14:56:54;7.13;;;5.30;;
20725;SDS011;10524;48.132;8.518;2022-07-23T14:59:20;6.00;;;5.32;;
20725;SDS011;10524;48.132;8.518;2022-07-23T15:01:46;6.40;;;4.60;;
20725;SDS011;10524;48.132;8.518;2022-07-23T15:04:12;5.43;;;4.88;;
20725;SDS011;10524;48.132;8.518;2022-07-23T15:06:38;9.70;;;4.85;;
20725;SDS011;10524;48.132;8.518;2022-07-23T15:09:04;5.70;;;5.20;;
20725;SDS011;10524;48.132;8.518;2022-07-23T15:11:31;5.63;;;5.13;;
20725;SDS011;10524;48.132;8.518;2022-07-23T15:13:59;5.40;;;4.90;;
20725;SDS011;10524;48.132;8.518;2022-07-23T15:16:25;7.25;;;5.20;;
20725;SDS011;10524;48.132;8.518;2022-07-23T15:18:53;5.32;;;4.82;;
20725;SDS011;10524;48.132;8.518;2022-07-23T15:21:19;4.88;;;4.50;;
20725;SDS011;10524;48.132;8.518;2022-07-23T15:23:46;6.32;;;5.43;;
20725;SDS011;10524;48.132;8.518;2022-07-23T15:26:12;5.40;;;4.90;;
20725;SDS011;10524;48.132;8.518;2022-07-23T15:28:39;5.32;;;4.82;;
20725;SDS011;10524;48.132;8.518;2022-07-23T15:31:05;5.20;;;4.70;;
20725;SDS011;10524;48.132;8.518;2022-07-23T15:33:30;5.40;;;4.90;;
20725;SDS011;10524;48.132;8.518;2022-07-23T15:35:56;5.22;;;4.70;;